createdAt,value
2022-12-31T00:01:49.195Z,7.83
2022-12-31T00:04:16.086Z,7.93
2022-12-31T00:06:42.676Z,7.45
2022-12-31T00:09:10.671Z,7.60
2022-12-31T00:11:38.355Z,7.44
2022-12-31T00:14:05.343Z,7.97
2022-12-31T00:16:36.628Z,7.57
2022-12-31T00:19:03.749Z,7.97
2022-12-31T00:21:32.185Z,7.95
2022-12-31T00:23:58.888Z,7.98
2022-12-31T00:26:27.902Z,7.98
2022-12-31T00:28:56.176Z,7.61
2022-12-31T00:31:28.639Z,8.00
2022-12-31T00:33:56.303Z,8.00
2022-12-31T00:36:34.629Z,7.93
2022-12-31T00:39:03.222Z,7.28
2022-12-31T00:41:30.568Z,8.03
2022-12-31T00:43:57.893Z,8.03
2022-12-31T00:46:25.144Z,7.50
2022-12-31T00:48:52.055Z,8.09
2022-12-31T00:51:21.387Z,7.76
2022-12-31T00:53:48.175Z,8.16
2022-12-31T00:56:17.574Z,8.18
2022-12-31T00:58:44.189Z,8.19
2022-12-31T01:01:28.803Z,8.22
2022-12-31T01:03:59.646Z,8.23
2022-12-31T01:06:26.195Z,7.57
2022-12-31T01:08:55.131Z,8.27
2022-12-31T01:11:22.806Z,8.32
2022-12-31T01:14:12.102Z,8.35
2022-12-31T01:16:49.847Z,8.38
2022-12-31T01:19:25.762Z,8.41
2022-12-31T01:21:52.754Z,8.46
2022-12-31T01:24:20.365Z,8.18
2022-12-31T01:26:48.703Z,8.21
2022-12-31T01:29:16.940Z,7.98
2022-12-31T01:31:43.841Z,8.54
2022-12-31T01:34:10.592Z,8.57
2022-12-31T01:36:38.674Z,8.51
2022-12-31T01:39:07.046Z,8.60
2022-12-31T01:41:36.858Z,8.60
2022-12-31T01:44:12.560Z,8.62
2022-12-31T01:46:41.045Z,8.64
2022-12-31T01:49:34.072Z,8.19
2022-12-31T01:52:15.471Z,8.66
2022-12-31T01:54:47.188Z,8.67
2022-12-31T01:57:14.688Z,8.64
2022-12-31T01:59:42.206Z,8.68
2022-12-31T02:02:09.104Z,8.67
2022-12-31T02:04:35.788Z,8.62
2022-12-31T02:07:04.834Z,8.61
2022-12-31T02:09:32.318Z,7.89
2022-12-31T02:11:59.047Z,8.29
2022-12-31T02:14:48.262Z,8.58
2022-12-31T02:17:22.165Z,8.40
2022-12-31T02:20:10.450Z,8.53
2022-12-31T02:23:03.663Z,7.74
2022-12-31T02:25:52.105Z,8.52
2022-12-31T02:28:56.115Z,8.53
2022-12-31T02:31:37.084Z,8.04
2022-12-31T02:34:14.194Z,8.51
2022-12-31T02:36:44.305Z,7.69
2022-12-31T02:39:12.415Z,7.84
2022-12-31T02:41:50.999Z,8.54
2022-12-31T02:44:37.201Z,8.44
2022-12-31T02:47:09.821Z,8.56
2022-12-31T02:49:57.741Z,8.58
2022-12-31T02:52:52.179Z,8.51
2022-12-31T02:55:24.743Z,8.59
2022-12-31T02:58:21.380Z,8.44
2022-12-31T03:01:31.705Z,8.61
2022-12-31T03:04:17.333Z,7.86
2022-12-31T03:06:43.965Z,8.44
2022-12-31T03:09:13.371Z,8.61
2022-12-31T03:11:58.622Z,8.62
2022-12-31T03:14:25.284Z,8.54
2022-12-31T03:16:51.891Z,8.62
2022-12-31T03:19:37.307Z,8.64
2022-12-31T03:22:22.839Z,7.57
2022-12-31T03:25:08.481Z,8.04
2022-12-31T03:27:35.024Z,8.74
2022-12-31T03:30:01.580Z,8.69
2022-12-31T03:32:28.141Z,8.79
2022-12-31T03:34:55.833Z,8.07
2022-12-31T03:37:22.405Z,8.22
2022-12-31T03:39:49.007Z,8.19
2022-12-31T03:42:15.584Z,8.85
2022-12-31T03:44:42.175Z,8.41
2022-12-31T03:47:08.739Z,8.89
2022-12-31T03:49:35.321Z,7.59
2022-12-31T03:52:06.399Z,8.13
2022-12-31T03:54:32.971Z,8.62
2022-12-31T03:57:00.387Z,8.98
2022-12-31T03:59:27.144Z,8.13
2022-12-31T04:01:53.868Z,8.45
2022-12-31T04:04:20.726Z,8.95
2022-12-31T04:06:47.334Z,8.24
2022-12-31T04:09:13.993Z,8.70
2022-12-31T04:11:40.589Z,8.81
2022-12-31T04:14:07.281Z,8.41
2022-12-31T04:16:33.909Z,8.69
2022-12-31T04:19:00.594Z,8.63
2022-12-31T04:21:33.108Z,7.71
2022-12-31T04:24:02.559Z,8.60
2022-12-31T04:26:29.588Z,8.51
2022-12-31T04:28:56.239Z,8.18
2022-12-31T04:31:23.060Z,8.61
2022-12-31T04:33:49.656Z,8.64
2022-12-31T04:36:16.252Z,7.92
2022-12-31T04:38:42.846Z,8.73
2022-12-31T04:41:18.740Z,8.76
2022-12-31T04:43:51.644Z,8.79
2022-12-31T04:46:25.219Z,8.78
2022-12-31T04:48:51.808Z,8.77
2022-12-31T04:51:19.013Z,8.74
2022-12-31T04:53:45.767Z,8.72
2022-12-31T04:56:12.596Z,7.67
2022-12-31T04:58:39.627Z,8.69
2022-12-31T05:01:06.799Z,8.66
2022-12-31T05:03:34.848Z,8.33
2022-12-31T05:06:03.999Z,8.66
2022-12-31T05:08:31.230Z,8.03
2022-12-31T05:10:58.471Z,8.75
2022-12-31T05:13:29.494Z,8.79
2022-12-31T05:15:59.711Z,7.62
2022-12-31T05:18:26.549Z,8.91
2022-12-31T05:20:53.511Z,8.97
2022-12-31T05:23:20.146Z,9.05
2022-12-31T05:25:47.865Z,8.84
2022-12-31T05:28:15.674Z,9.16
2022-12-31T05:30:42.904Z,9.21
2022-12-31T05:33:09.511Z,9.23
2022-12-31T05:35:36.500Z,9.25
2022-12-31T05:38:03.132Z,9.26
2022-12-31T05:40:30.896Z,8.27
2022-12-31T05:42:58.598Z,8.67
2022-12-31T05:45:30.336Z,9.35
2022-12-31T05:47:57.747Z,8.97
2022-12-31T05:50:24.401Z,9.33
2022-12-31T05:52:55.448Z,9.30
2022-12-31T05:55:24.457Z,9.30
2022-12-31T05:57:51.020Z,9.33
2022-12-31T06:00:17.762Z,9.38
2022-12-31T06:02:44.851Z,9.33
2022-12-31T06:05:12.287Z,8.84
2022-12-31T06:07:38.937Z,9.12
2022-12-31T06:10:05.949Z,8.75
2022-12-31T06:12:32.567Z,9.54
2022-12-31T06:14:59.193Z,9.57
2022-12-31T06:17:25.768Z,8.94
2022-12-31T06:19:52.707Z,9.32
2022-12-31T06:22:19.260Z,9.29
2022-12-31T06:24:46.597Z,9.70
2022-12-31T06:27:13.177Z,9.44
2022-12-31T06:29:39.742Z,9.66
2022-12-31T06:32:06.918Z,9.77
2022-12-31T06:34:33.531Z,9.81
2022-12-31T06:37:00.749Z,9.83
2022-12-31T06:39:28.360Z,9.86
2022-12-31T06:41:55.256Z,9.87
2022-12-31T06:44:22.536Z,9.60
2022-12-31T06:46:50.022Z,9.82
2022-12-31T06:49:17.337Z,9.11
2022-12-31T06:51:46.001Z,9.96
2022-12-31T06:54:13.315Z,9.17
2022-12-31T06:56:40.763Z,9.63
2022-12-31T06:59:29.719Z,9.56
2022-12-31T07:02:37.280Z,10.01
2022-12-31T07:05:05.005Z,10.01
2022-12-31T07:07:37.540Z,10.00
2022-12-31T07:10:29.720Z,9.98
2022-12-31T07:13:30.795Z,9.95
2022-12-31T07:16:06.458Z,9.89
2022-12-31T07:18:35.870Z,9.87
2022-12-31T07:21:02.798Z,9.63
2022-12-31T07:23:29.693Z,9.90
2022-12-31T07:26:30.900Z,9.92
2022-12-31T07:29:20.498Z,9.96
2022-12-31T07:31:53.201Z,9.97
2022-12-31T07:34:22.964Z,9.49
2022-12-31T07:37:01.493Z,10.03
2022-12-31T07:39:54.584Z,10.10
2022-12-31T07:42:28.552Z,10.12
2022-12-31T07:45:04.066Z,10.16
2022-12-31T07:47:31.063Z,10.19
2022-12-31T07:49:58.404Z,9.49
2022-12-31T07:52:25.713Z,10.25
2022-12-31T07:54:52.309Z,10.21
2022-12-31T07:57:20.751Z,9.97
2022-12-31T07:59:50.045Z,10.37
2022-12-31T08:02:28.734Z,10.41
2022-12-31T08:05:04.182Z,10.45
2022-12-31T08:07:43.431Z,10.49
2022-12-31T08:10:29.676Z,10.32
2022-12-31T08:13:02.673Z,10.59
2022-12-31T08:15:30.730Z,10.51
2022-12-31T08:17:57.993Z,10.75
2022-12-31T08:20:25.867Z,10.01
2022-12-31T08:23:14.164Z,10.95
2022-12-31T08:25:53.000Z,11.07
2022-12-31T08:28:34.841Z,11.18
2022-12-31T08:31:08.861Z,11.29
2022-12-31T08:33:56.805Z,11.11
2022-12-31T08:36:50.191Z,11.45
2022-12-31T08:39:31.866Z,11.24
2022-12-31T08:42:03.307Z,11.61
2022-12-31T08:44:52.589Z,11.42
2022-12-31T08:47:46.768Z,11.50
2022-12-31T08:50:16.562Z,11.81
2022-12-31T08:52:43.430Z,11.31
2022-12-31T08:55:17.319Z,11.94
2022-12-31T08:57:52.808Z,11.98
2022-12-31T09:00:19.988Z,12.03
2022-12-31T09:03:16.928Z,12.12
2022-12-31T09:05:53.095Z,12.19
2022-12-31T09:08:50.978Z,12.26
2022-12-31T09:11:33.672Z,11.42
2022-12-31T09:14:23.570Z,12.38
2022-12-31T09:16:58.214Z,12.35
2022-12-31T09:19:24.859Z,12.46
2022-12-31T09:21:51.706Z,12.34
2022-12-31T09:24:18.559Z,12.53
2022-12-31T09:26:57.348Z,12.58
2022-12-31T09:29:46.109Z,12.55
2022-12-31T09:32:24.824Z,12.69
2022-12-31T09:35:03.952Z,12.72
2022-12-31T09:37:33.251Z,12.74
2022-12-31T09:40:34.098Z,12.80
2022-12-31T09:43:22.227Z,12.84
2022-12-31T09:46:14.535Z,12.88
2022-12-31T09:48:44.097Z,12.92
2022-12-31T09:51:39.782Z,12.98
2022-12-31T09:54:33.238Z,13.02
2022-12-31T09:57:21.160Z,13.04
2022-12-31T10:00:03.861Z,13.08
2022-12-31T10:03:16.997Z,13.05
2022-12-31T10:06:01.705Z,13.03
2022-12-31T10:08:57.485Z,12.99
2022-12-31T10:11:48.693Z,12.97
2022-12-31T10:14:34.078Z,12.93
2022-12-31T10:17:21.956Z,12.86
2022-12-31T10:20:15.283Z,12.58
2022-12-31T10:23:19.028Z,12.48
2022-12-31T10:25:51.196Z,12.96
2022-12-31T10:28:37.007Z,12.96
2022-12-31T10:31:13.557Z,13.00
2022-12-31T10:33:53.281Z,13.04
2022-12-31T10:36:52.812Z,13.07
2022-12-31T10:39:50.424Z,13.09
2022-12-31T10:42:19.732Z,13.13
2022-12-31T10:45:14.369Z,13.20
2022-12-31T10:48:02.582Z,13.22
2022-12-31T10:50:53.895Z,13.30
2022-12-31T10:53:58.903Z,13.35
2022-12-31T10:56:53.632Z,13.46
2022-12-31T10:59:38.104Z,13.56
2022-12-31T11:02:13.839Z,13.66
2022-12-31T11:04:59.159Z,13.75
2022-12-31T11:07:47.584Z,13.86
2022-12-31T11:10:43.405Z,13.91
2022-12-31T11:13:19.910Z,13.98
2022-12-31T11:15:52.368Z,14.02
2022-12-31T11:18:37.761Z,14.07
2022-12-31T11:21:28.175Z,13.21
2022-12-31T11:24:25.293Z,14.22
2022-12-31T11:27:03.678Z,14.26
2022-12-31T11:29:39.657Z,13.43
2022-12-31T11:32:28.274Z,14.41
2022-12-31T11:35:07.725Z,14.22
2022-12-31T11:37:45.815Z,14.56
2022-12-31T11:40:21.552Z,14.65
2022-12-31T11:43:21.035Z,14.75
2022-12-31T11:46:06.256Z,14.81
2022-12-31T11:49:14.732Z,14.07
2022-12-31T11:51:51.482Z,14.90
2022-12-31T11:54:34.431Z,14.93
2022-12-31T11:57:31.543Z,14.77
2022-12-31T12:00:00.715Z,14.98
2022-12-31T12:02:43.984Z,15.09
2022-12-31T12:05:14.985Z,15.07
2022-12-31T12:07:41.569Z,15.02
2022-12-31T12:10:35.613Z,15.11
2022-12-31T12:13:13.546Z,15.09
2022-12-31T12:15:44.684Z,15.08
2022-12-31T12:18:19.278Z,15.05
2022-12-31T12:20:46.959Z,15.09
2022-12-31T12:23:24.146Z,14.26
2022-12-31T12:25:51.538Z,15.15
2022-12-31T12:28:18.407Z,15.17
2022-12-31T12:31:05.635Z,15.23
2022-12-31T12:33:46.900Z,14.60
2022-12-31T12:36:15.569Z,15.33
2022-12-31T12:38:43.262Z,14.31
2022-12-31T12:41:20.862Z,15.40
2022-12-31T12:43:47.515Z,15.41
2022-12-31T12:46:20.292Z,15.40
2022-12-31T12:48:49.502Z,15.39
2022-12-31T12:51:25.145Z,15.38
2022-12-31T12:54:25.906Z,15.41
2022-12-31T12:57:05.525Z,15.39
2022-12-31T12:59:44.256Z,15.41
2022-12-31T13:02:16.758Z,15.42
2022-12-31T13:05:16.326Z,15.38
2022-12-31T13:08:00.963Z,15.12
2022-12-31T13:10:28.494Z,15.37
2022-12-31T13:13:25.429Z,15.31
2022-12-31T13:16:40.599Z,15.31
2022-12-31T13:19:32.809Z,15.28
2022-12-31T13:22:31.760Z,15.27
2022-12-31T13:25:34.695Z,15.28
2022-12-31T13:28:06.264Z,15.14
2022-12-31T13:30:38.860Z,15.23
2022-12-31T13:33:11.449Z,15.07
2022-12-31T13:35:59.588Z,15.23
2022-12-31T13:38:28.680Z,15.21
2022-12-31T13:41:23.125Z,14.55
2022-12-31T13:44:04.846Z,15.19
2022-12-31T13:46:50.084Z,15.22
2022-12-31T13:49:25.632Z,15.20
2022-12-31T13:52:05.161Z,15.08
2022-12-31T13:54:34.739Z,15.17
2022-12-31T13:57:36.680Z,15.11
2022-12-31T14:00:07.164Z,15.06
2022-12-31T14:03:04.526Z,15.02
2022-12-31T14:05:35.178Z,15.01
2022-12-31T14:08:03.120Z,14.98
2022-12-31T14:10:57.460Z,14.92
2022-12-31T14:13:55.944Z,14.86
2022-12-31T14:16:57.995Z,14.78
2022-12-31T14:19:43.276Z,14.73
2022-12-31T14:22:25.538Z,14.66
2022-12-31T14:24:52.515Z,14.59
2022-12-31T14:27:31.219Z,13.92
2022-12-31T14:30:15.681Z,14.14
2022-12-31T14:33:10.733Z,14.39
2022-12-31T14:35:46.666Z,14.32
2022-12-31T14:38:32.079Z,14.26
2022-12-31T14:41:33.130Z,14.11
2022-12-31T14:44:29.764Z,13.36
2022-12-31T14:47:27.524Z,14.01
2022-12-31T14:50:11.812Z,13.92
2022-12-31T14:52:47.373Z,13.87
2022-12-31T14:55:15.032Z,13.80
2022-12-31T14:58:25.782Z,13.72
2022-12-31T15:00:35.716Z,13.61
2022-12-31T15:03:06.557Z,13.52
2022-12-31T15:05:36.404Z,13.43
2022-12-31T15:08:34.073Z,13.35
2022-12-31T15:11:34.025Z,13.27
2022-12-31T15:14:15.503Z,13.18
2022-12-31T15:17:06.849Z,13.11
2022-12-31T15:19:33.286Z,13.02
2022-12-31T15:22:23.132Z,12.93
2022-12-31T15:24:50.195Z,12.77
2022-12-31T15:27:37.126Z,12.80
2022-12-31T15:30:07.881Z,12.71
2022-12-31T15:32:42.037Z,12.65
2022-12-31T15:35:20.934Z,12.59
2022-12-31T15:38:15.239Z,12.52
2022-12-31T15:40:50.653Z,12.43
2022-12-31T15:43:29.390Z,12.38
2022-12-31T15:45:57.636Z,11.97
2022-12-31T15:48:37.534Z,11.65
2022-12-31T15:51:05.551Z,12.23
2022-12-31T15:53:43.020Z,12.19
2022-12-31T15:56:18.962Z,12.15
2022-12-31T15:58:47.400Z,11.02
2022-12-31T16:01:24.668Z,12.07
2022-12-31T16:04:02.356Z,10.58
2022-12-31T16:06:31.283Z,11.20
2022-12-31T16:08:58.491Z,11.05
2022-12-31T16:11:25.776Z,10.68
2022-12-31T16:13:55.164Z,11.81
2022-12-31T16:16:21.908Z,11.74
2022-12-31T16:18:53.125Z,11.65
2022-12-31T16:21:37.029Z,11.49
2022-12-31T16:24:07.509Z,11.50
2022-12-31T16:26:46.355Z,11.41
2022-12-31T16:29:19.017Z,11.34
2022-12-31T16:31:47.493Z,10.08
2022-12-31T16:34:16.992Z,11.24
2022-12-31T16:36:55.197Z,10.55
2022-12-31T16:39:21.724Z,11.19
2022-12-31T16:41:48.478Z,11.17
2022-12-31T16:44:28.163Z,11.16
2022-12-31T16:47:00.609Z,11.05
2022-12-31T16:49:30.410Z,11.12
2022-12-31T16:52:04.558Z,11.14
2022-12-31T16:54:47.154Z,11.11
2022-12-31T16:57:24.481Z,11.00
2022-12-31T16:59:55.834Z,9.74
2022-12-31T17:02:29.949Z,11.06
2022-12-31T17:04:56.736Z,9.76
2022-12-31T17:07:29.469Z,11.04
2022-12-31T17:10:22.365Z,11.02
2022-12-31T17:13:30.582Z,10.85
2022-12-31T17:15:47.743Z,11.01
2022-12-31T17:18:20.883Z,11.00
2022-12-31T17:20:50.266Z,10.99
2022-12-31T17:23:25.192Z,10.99
2022-12-31T17:26:08.829Z,10.10
2022-12-31T17:28:43.253Z,11.04
2022-12-31T17:31:43.160Z,11.06
2022-12-31T17:34:12.436Z,11.05
2022-12-31T17:36:41.674Z,10.17
2022-12-31T17:39:19.545Z,11.08
2022-12-31T17:41:47.869Z,10.17
2022-12-31T17:44:21.476Z,11.03
2022-12-31T17:46:49.938Z,11.00
2022-12-31T17:49:17.454Z,10.52
2022-12-31T17:51:47.774Z,10.85
2022-12-31T17:54:18.866Z,10.86
2022-12-31T17:56:45.865Z,10.78
2022-12-31T17:59:17.797Z,10.48
2022-12-31T18:01:44.559Z,10.69
2022-12-31T18:04:13.459Z,9.89
2022-12-31T18:06:40.057Z,10.61
2022-12-31T18:09:07.054Z,10.59
2022-12-31T18:11:36.368Z,9.27
2022-12-31T18:14:03.114Z,10.52
2022-12-31T18:16:30.142Z,10.49
2022-12-31T18:18:58.796Z,10.43
2022-12-31T18:21:34.445Z,10.40
2022-12-31T18:26:29.423Z,10.42
2022-12-31T18:29:01.645Z,10.28
2022-12-31T18:31:30.899Z,10.07
2022-12-31T18:33:58.795Z,10.34
2022-12-31T18:36:26.437Z,10.28
2022-12-31T18:38:53.075Z,9.31
2022-12-31T18:41:31.141Z,9.84
2022-12-31T18:43:57.688Z,10.21
2022-12-31T18:46:25.228Z,9.39
2022-12-31T18:48:51.860Z,9.51
2022-12-31T18:51:31.439Z,10.16
2022-12-31T18:53:59.404Z,8.95
2022-12-31T18:56:26.627Z,9.82
2022-12-31T18:58:53.192Z,9.81
2022-12-31T19:01:24.387Z,10.07
2022-12-31T19:03:51.028Z,10.01
2022-12-31T19:06:17.675Z,10.00
2022-12-31T19:08:44.229Z,9.96
2022-12-31T19:11:14.566Z,9.48
2022-12-31T19:13:41.294Z,9.93
2022-12-31T19:16:09.326Z,9.53
2022-12-31T19:18:35.959Z,8.85
2022-12-31T19:21:03.379Z,9.83
2022-12-31T19:23:29.976Z,9.80
2022-12-31T19:25:56.573Z,9.06
2022-12-31T19:28:25.551Z,9.76
2022-12-31T19:30:52.878Z,9.72
2022-12-31T19:33:20.081Z,9.31
2022-12-31T19:35:46.811Z,9.71
2022-12-31T19:38:24.856Z,9.71
2022-12-31T19:40:53.251Z,8.43
2022-12-31T19:43:22.949Z,9.70
2022-12-31T19:45:50.982Z,9.50
2022-12-31T19:48:20.351Z,9.67
2022-12-31T19:50:49.558Z,9.60
2022-12-31T19:53:25.603Z,9.63
2022-12-31T19:55:53.559Z,9.56
2022-12-31T19:58:24.620Z,9.54
2022-12-31T20:00:58.213Z,9.53
2022-12-31T20:03:27.928Z,9.48
2022-12-31T20:06:15.165Z,9.46
2022-12-31T20:08:43.346Z,9.44
2022-12-31T20:11:15.365Z,9.45
2022-12-31T20:13:42.480Z,9.40
2022-12-31T20:16:13.931Z,9.39
2022-12-31T20:18:41.834Z,8.39
2022-12-31T20:21:10.532Z,9.38
2022-12-31T20:23:37.470Z,8.55
2022-12-31T20:26:04.129Z,9.36
2022-12-31T20:28:30.810Z,9.34
2022-12-31T20:30:57.469Z,8.29
2022-12-31T20:33:24.216Z,8.37
2022-12-31T20:35:51.192Z,9.30
2022-12-31T20:38:17.754Z,8.37
2022-12-31T20:40:46.928Z,9.29
2022-12-31T20:43:14.138Z,9.15
2022-12-31T20:45:41.616Z,8.56
2022-12-31T20:48:08.311Z,9.22
2022-12-31T20:50:35.024Z,8.27
2022-12-31T20:53:02.034Z,9.20
2022-12-31T20:55:30.699Z,8.98
2022-12-31T20:57:57.323Z,9.18
2022-12-31T21:00:23.909Z,8.58
2022-12-31T21:03:00.280Z,9.16
2022-12-31T21:05:33.543Z,8.43
2022-12-31T21:08:00.255Z,9.02
2022-12-31T21:10:26.871Z,8.55
2022-12-31T21:12:53.497Z,7.85
2022-12-31T21:15:21.461Z,9.18
2022-12-31T21:17:48.093Z,8.74
2022-12-31T21:20:14.701Z,8.52
2022-12-31T21:22:41.333Z,9.09
2022-12-31T21:25:08.172Z,9.22
2022-12-31T21:27:35.788Z,9.24
2022-12-31T21:30:19.781Z,8.93
2022-12-31T21:32:47.053Z,9.17
2022-12-31T21:38:01.842Z,9.16
2022-12-31T21:40:29.372Z,9.17
2022-12-31T21:42:56.102Z,9.17
2022-12-31T21:45:22.714Z,9.15
2022-12-31T21:48:10.676Z,9.16
2022-12-31T21:50:37.332Z,9.17
2022-12-31T21:53:03.939Z,9.13
2022-12-31T21:55:49.212Z,9.03
2022-12-31T21:58:26.536Z,9.25
2022-12-31T22:01:27.536Z,8.50
2022-12-31T22:03:54.263Z,8.44
2022-12-31T22:06:24.626Z,8.91
2022-12-31T22:08:53.755Z,9.31
2022-12-31T22:11:23.028Z,9.31
2022-12-31T22:13:50.019Z,9.32
2022-12-31T22:16:18.632Z,9.35
2022-12-31T22:18:45.504Z,8.64
2022-12-31T22:21:22.933Z,9.36
2022-12-31T22:23:52.475Z,9.38
2022-12-31T22:28:48.305Z,9.36
2022-12-31T22:31:19.788Z,9.39
2022-12-31T22:33:46.750Z,9.15
2022-12-31T22:36:16.144Z,9.43
2022-12-31T22:38:43.155Z,9.43
2022-12-31T22:41:14.959Z,8.93
2022-12-31T22:43:44.437Z,9.41
2022-12-31T22:46:19.895Z,9.40
2022-12-31T22:48:47.383Z,9.43
2022-12-31T22:51:15.306Z,9.42
2022-12-31T22:53:43.463Z,9.43
2022-12-31T22:56:12.394Z,9.42
2022-12-31T22:58:39.180Z,9.32
2022-12-31T23:01:08.126Z,9.40
2022-12-31T23:03:34.927Z,9.40
2022-12-31T23:06:02.374Z,8.59
2022-12-31T23:08:28.966Z,8.86
2022-12-31T23:11:01.121Z,8.75
2022-12-31T23:13:51.007Z,9.34
2022-12-31T23:16:38.169Z,9.31
2022-12-31T23:19:24.780Z,7.98
2022-12-31T23:22:11.195Z,8.87
2022-12-31T23:24:38.549Z,9.24
2022-12-31T23:27:05.745Z,9.21
2022-12-31T23:29:32.620Z,9.21
2022-12-31T23:31:59.354Z,9.16
2022-12-31T23:34:25.954Z,7.95
2022-12-31T23:36:52.528Z,8.38
2022-12-31T23:39:19.307Z,7.82
2022-12-31T23:41:45.862Z,8.33
2022-12-31T23:44:12.452Z,8.86
2022-12-31T23:46:40.005Z,9.05
2022-12-31T23:49:06.744Z,8.05
2022-12-31T23:51:33.580Z,9.00
2022-12-31T23:54:00.873Z,8.40
2022-12-31T23:56:29.803Z,8.86
2022-12-31T23:58:57.885Z,8.95
